createdAt,value
2023-03-02T00:00:16.626Z,96121.00
2023-03-02T00:03:18.399Z,96119.31
2023-03-02T00:06:20.256Z,96121.94
2023-03-02T00:09:21.939Z,96118.44
2023-03-02T00:12:24.283Z,96111.09
2023-03-02T00:15:26.792Z,96122.25
2023-03-02T00:18:28.371Z,96122.34
2023-03-02T00:21:30.210Z,96112.13
2023-03-02T00:24:32.082Z,96121.81
2023-03-02T00:27:33.748Z,96119.50
2023-03-02T00:30:38.257Z,96116.25
2023-03-02T00:33:41.023Z,96109.28
2023-03-02T00:36:43.465Z,96108.44
2023-03-02T00:39:45.462Z,96105.81
2023-03-02T00:42:47.059Z,96109.28
2023-03-02T00:45:48.780Z,96110.34
2023-03-02T00:48:51.811Z,96115.59
2023-03-02T00:51:53.439Z,96110.44
2023-03-02T00:54:55.107Z,96110.44
2023-03-02T00:57:57.128Z,96114.00
2023-03-02T01:01:11.305Z,96103.63
2023-03-02T01:04:18.647Z,96107.19
2023-03-02T01:07:22.640Z,96094.13
2023-03-02T01:10:24.389Z,96090.13
2023-03-02T01:13:26.080Z,96090.34
2023-03-02T01:16:27.944Z,96091.28
2023-03-02T01:19:30.946Z,96080.97
2023-03-02T01:22:32.656Z,96087.09
2023-03-02T01:25:36.579Z,96074.13
2023-03-02T01:28:40.349Z,96073.38
2023-03-02T01:31:42.530Z,96072.75
2023-03-02T01:34:44.419Z,96058.97
2023-03-02T01:37:46.085Z,96062.44
2023-03-02T01:40:47.884Z,96057.19
2023-03-02T01:43:49.519Z,96053.00
2023-03-02T01:46:51.299Z,96059.91
2023-03-02T01:50:01.636Z,96047.84
2023-03-02T01:53:11.670Z,96051.31
2023-03-02T01:56:19.814Z,96055.72
2023-03-02T01:59:23.820Z,96043.53
2023-03-02T02:02:26.522Z,96048.03
2023-03-02T02:05:28.252Z,96042.16
2023-03-02T02:08:30.528Z,96043.72
2023-03-02T02:11:32.203Z,96034.19
2023-03-02T02:14:33.962Z,96042.06
2023-03-02T02:17:35.806Z,96045.50
2023-03-02T02:20:41.057Z,96036.69
2023-03-02T02:24:01.904Z,96034.19
2023-03-02T02:27:03.839Z,96033.34
2023-03-02T02:30:07.966Z,96037.75
2023-03-02T02:33:16.882Z,96033.63
2023-03-02T02:36:25.614Z,96031.31
2023-03-02T02:39:34.226Z,96021.00
2023-03-02T02:42:43.442Z,96023.84
2023-03-02T02:45:48.471Z,96022.34
2023-03-02T02:48:50.324Z,96018.25
2023-03-02T02:51:52.730Z,96021.91
2023-03-02T02:54:57.886Z,96017.72
2023-03-02T02:58:02.837Z,96008.44
2023-03-02T03:01:07.094Z,96015.47
2023-03-02T03:04:14.178Z,96016.53
2023-03-02T03:07:25.552Z,96022.00
2023-03-02T03:10:37.431Z,96017.91
2023-03-02T03:13:41.077Z,96018.84
2023-03-02T03:16:45.343Z,96018.94
2023-03-02T03:19:47.702Z,96002.56
2023-03-02T03:22:53.454Z,96000.88
2023-03-02T03:25:55.857Z,96010.22
2023-03-02T03:28:57.552Z,96002.31
2023-03-02T03:32:01.345Z,96005.81
2023-03-02T03:35:08.523Z,96007.47
2023-03-02T03:38:12.128Z,96008.34
2023-03-02T03:41:13.890Z,96007.41
2023-03-02T03:44:15.716Z,96010.13
2023-03-02T03:47:19.129Z,95990.97
2023-03-02T03:50:21.519Z,96003.69
2023-03-02T03:53:23.453Z,96004.44
2023-03-02T03:56:30.740Z,95999.19
2023-03-02T03:59:34.107Z,96000.97
2023-03-02T04:02:38.498Z,95984.88
2023-03-02T04:05:40.583Z,95993.50
2023-03-02T04:08:43.661Z,96000.03
2023-03-02T04:11:47.882Z,96006.13
2023-03-02T04:14:50.007Z,96004.63
2023-03-02T04:17:51.792Z,96003.06
2023-03-02T04:20:55.170Z,96010.28
2023-03-02T04:23:56.874Z,96010.50
2023-03-02T04:26:58.896Z,96009.94
2023-03-02T04:30:01.427Z,96011.84
2023-03-02T04:33:04.949Z,96012.00
2023-03-02T04:36:10.160Z,96013.88
2023-03-02T04:39:14.793Z,96013.97
2023-03-02T04:42:20.946Z,96013.88
2023-03-02T04:45:22.596Z,96008.72
2023-03-02T04:48:24.676Z,96010.31
2023-03-02T04:51:30.312Z,96006.94
2023-03-02T04:54:32.205Z,96007.06
2023-03-02T04:57:33.853Z,96011.16
2023-03-02T05:00:36.100Z,96004.06
2023-03-02T05:03:37.888Z,96006.69
2023-03-02T05:06:41.015Z,95999.75
2023-03-02T05:09:42.680Z,96002.97
2023-03-02T05:13:02.601Z,95999.66
2023-03-02T05:16:04.640Z,95992.03
2023-03-02T05:19:09.306Z,96003.09
2023-03-02T05:22:11.528Z,96003.09
2023-03-02T05:25:14.534Z,96005.72
2023-03-02T05:28:18.991Z,96000.50
2023-03-02T05:31:41.231Z,95995.31
2023-03-02T05:34:43.404Z,95998.34
2023-03-02T05:37:45.586Z,95998.34
2023-03-02T05:40:48.565Z,95997.69
2023-03-02T05:43:50.701Z,95999.69
2023-03-02T05:46:52.827Z,95998.41
2023-03-02T05:49:54.639Z,96009.84
2023-03-02T05:52:56.487Z,96017.03
2023-03-02T05:55:58.239Z,96016.41
2023-03-02T05:59:00.266Z,96012.09
2023-03-02T06:02:03.191Z,96003.78
2023-03-02T06:05:09.310Z,96016.81
2023-03-02T06:08:12.138Z,96015.31
2023-03-02T06:11:16.116Z,96011.84
2023-03-02T06:14:19.230Z,96020.75
2023-03-02T06:17:20.934Z,96025.16
2023-03-02T06:20:22.797Z,96012.53
2023-03-02T06:23:25.142Z,96027.13
2023-03-02T06:26:26.754Z,96022.63
2023-03-02T06:29:28.322Z,96034.59
2023-03-02T06:32:34.226Z,96033.56
2023-03-02T06:35:36.063Z,96031.97
2023-03-02T06:38:40.561Z,96027.94
2023-03-02T06:41:44.923Z,96033.00
2023-03-02T06:44:48.568Z,96030.84
2023-03-02T06:47:50.167Z,96040.38
2023-03-02T06:50:51.776Z,96042.63
2023-03-02T06:53:53.675Z,96044.09
2023-03-02T06:56:57.798Z,96036.22
2023-03-02T07:00:01.405Z,96033.41
2023-03-02T07:03:03.912Z,96040.88
2023-03-02T07:06:06.272Z,96042.28
2023-03-02T07:09:08.628Z,96046.50
2023-03-02T07:12:11.568Z,96043.47
2023-03-02T07:15:16.243Z,96044.22
2023-03-02T07:18:18.989Z,96051.69
2023-03-02T07:21:23.368Z,96051.38
2023-03-02T07:24:25.623Z,96054.34
2023-03-02T07:27:27.706Z,96043.75
2023-03-02T07:30:29.828Z,96051.03
2023-03-02T07:33:32.162Z,96047.25
2023-03-02T07:36:34.248Z,96051.34
2023-03-02T07:39:35.866Z,96055.38
2023-03-02T07:42:38.701Z,96055.06
2023-03-02T07:45:43.933Z,96062.44
2023-03-02T07:48:45.556Z,96069.91
2023-03-02T07:51:49.161Z,96059.81
2023-03-02T07:54:50.970Z,96060.38
2023-03-02T07:57:53.183Z,96056.47
2023-03-02T08:00:54.787Z,96052.38
2023-03-02T08:03:56.882Z,96056.06
2023-03-02T08:06:59.035Z,96059.84
2023-03-02T08:10:01.372Z,96065.44
2023-03-02T08:13:03.743Z,96057.75
2023-03-02T08:16:08.740Z,96056.13
2023-03-02T08:19:10.795Z,96062.03
2023-03-02T08:22:13.070Z,96052.88
2023-03-02T08:25:17.246Z,96056.41
2023-03-02T08:28:20.141Z,96065.47
2023-03-02T08:31:22.330Z,96063.22
2023-03-02T08:34:26.343Z,96060.16
2023-03-02T08:37:28.644Z,96061.41
2023-03-02T08:40:30.245Z,96063.59
2023-03-02T08:43:32.386Z,96050.00
2023-03-02T08:46:34.592Z,96060.69
2023-03-02T08:49:37.943Z,96043.72
2023-03-02T08:52:40.213Z,96053.47
2023-03-02T08:55:41.831Z,96053.00
2023-03-02T08:58:46.388Z,96042.75
2023-03-02T09:01:48.213Z,96045.66
2023-03-02T09:04:50.394Z,96039.81
2023-03-02T09:07:52.466Z,96042.72
2023-03-02T09:10:54.520Z,96039.28
2023-03-02T09:13:56.331Z,96046.59
2023-03-02T09:16:59.045Z,96049.50
2023-03-02T09:20:01.250Z,96049.03
2023-03-02T09:23:02.842Z,96055.31
2023-03-02T09:26:06.132Z,96056.53
2023-03-02T09:29:08.416Z,96056.88
2023-03-02T09:32:11.791Z,96048.38
2023-03-02T09:35:15.588Z,96050.66
2023-03-02T09:38:18.714Z,96053.44
2023-03-02T09:42:07.891Z,96048.41
2023-03-02T09:45:22.238Z,96048.63
2023-03-02T09:48:44.290Z,96045.50
2023-03-02T09:51:48.663Z,96051.16
2023-03-02T09:54:50.838Z,96042.63
2023-03-02T09:57:54.909Z,96051.72
2023-03-02T10:00:59.198Z,96054.59
2023-03-02T10:04:13.559Z,96049.44
2023-03-02T10:07:35.673Z,96048.56
2023-03-02T10:10:54.755Z,96046.75
2023-03-02T10:14:33.793Z,96044.06
2023-03-02T10:18:01.454Z,96050.00
2023-03-02T10:21:05.725Z,96051.19
2023-03-02T10:24:41.308Z,96053.31
2023-03-02T10:27:52.372Z,96054.97
2023-03-02T10:31:08.263Z,96055.03
2023-03-02T10:34:14.919Z,96048.97
2023-03-02T10:37:28.481Z,96051.81
2023-03-02T10:40:49.769Z,96052.03
2023-03-02T10:43:57.559Z,96059.19
2023-03-02T10:46:59.592Z,96056.03
2023-03-02T10:50:01.247Z,96045.56
2023-03-02T10:53:06.738Z,96049.34
2023-03-02T10:56:22.380Z,96047.28
2023-03-02T10:59:45.852Z,96039.78
2023-03-02T11:03:02.591Z,96049.72
2023-03-02T11:06:21.455Z,96042.34
2023-03-02T11:09:23.497Z,96036.25
2023-03-02T11:12:26.119Z,96039.09
2023-03-02T11:15:46.030Z,96032.72
2023-03-02T11:19:10.369Z,96026.59
2023-03-02T11:22:44.065Z,96030.53
2023-03-02T11:25:57.336Z,96034.19
2023-03-02T11:29:04.608Z,96032.78
2023-03-02T11:32:20.296Z,96036.31
2023-03-02T11:35:45.357Z,96033.28
2023-03-02T11:38:51.314Z,96028.84
2023-03-02T11:41:54.650Z,96029.94
2023-03-02T11:45:18.870Z,96016.97
2023-03-02T11:48:33.443Z,96020.06
2023-03-02T11:51:50.020Z,96015.88
2023-03-02T11:55:15.423Z,96006.25
2023-03-02T11:58:21.181Z,96004.41
2023-03-02T12:01:26.843Z,95999.66
2023-03-02T12:04:32.577Z,96003.25
2023-03-02T12:07:34.343Z,95994.03
2023-03-02T12:10:42.601Z,96001.28
2023-03-02T12:14:04.091Z,95997.09
2023-03-02T12:17:26.363Z,95998.72
2023-03-02T12:20:30.878Z,95991.00
2023-03-02T12:24:04.007Z,95993.19
2023-03-02T12:27:21.399Z,95994.84
2023-03-02T12:30:28.681Z,95995.25
2023-03-02T12:33:30.444Z,95984.31
2023-03-02T12:36:41.441Z,95994.22
2023-03-02T12:40:03.105Z,95988.31
2023-03-02T12:43:20.660Z,95982.53
2023-03-02T12:46:34.049Z,95986.28
2023-03-02T12:49:58.628Z,95979.84
2023-03-02T12:53:02.816Z,95976.44
2023-03-02T12:56:04.825Z,95967.72
2023-03-02T12:59:06.775Z,95979.28
2023-03-02T13:02:21.739Z,95975.88
2023-03-02T13:05:35.464Z,95976.13
2023-03-02T13:08:37.694Z,95967.81
2023-03-02T13:11:39.975Z,95969.06
2023-03-02T13:14:46.177Z,95969.44
2023-03-02T13:18:00.533Z,95960.28
2023-03-02T13:21:04.805Z,95965.25
2023-03-02T13:24:33.715Z,95961.97
2023-03-02T13:27:35.460Z,95967.50
2023-03-02T13:30:43.566Z,95967.59
2023-03-02T13:33:47.430Z,95965.84
2023-03-02T13:36:52.164Z,95966.50
2023-03-02T13:39:59.764Z,95960.41
2023-03-02T13:43:01.483Z,95961.94
2023-03-02T13:46:16.055Z,95962.22
2023-03-02T13:49:35.760Z,95963.06
2023-03-02T13:52:37.450Z,95965.75
2023-03-02T13:55:40.124Z,95966.44
2023-03-02T13:58:41.847Z,95962.41
2023-03-02T14:01:47.690Z,95962.56
2023-03-02T14:04:49.474Z,95964.25
2023-03-02T14:07:51.686Z,95952.22
2023-03-02T14:10:59.637Z,95958.91
2023-03-02T14:14:03.242Z,95954.72
2023-03-02T14:17:16.564Z,95957.94
2023-03-02T14:20:22.924Z,95962.41
2023-03-02T14:23:26.316Z,95963.41
2023-03-02T14:26:38.003Z,95955.56
2023-03-02T14:29:39.665Z,95962.22
2023-03-02T14:32:41.316Z,95960.59
2023-03-02T14:35:44.097Z,95953.59
2023-03-02T14:38:48.042Z,95958.44
2023-03-02T14:41:54.486Z,95947.09
2023-03-02T14:44:56.500Z,95951.28
2023-03-02T14:47:58.089Z,95942.16
2023-03-02T14:51:01.243Z,95947.47
2023-03-02T14:54:07.444Z,95937.66
2023-03-02T14:57:28.040Z,95939.84
2023-03-02T15:00:31.608Z,95943.56
2023-03-02T15:03:33.330Z,95934.81
2023-03-02T15:06:38.661Z,95936.09
2023-03-02T15:09:40.316Z,95944.56
2023-03-02T15:12:41.994Z,95946.31
2023-03-02T15:15:44.715Z,95942.53
2023-03-02T15:18:49.903Z,95943.56
2023-03-02T15:21:52.958Z,95945.28
2023-03-02T15:24:55.575Z,95940.78
2023-03-02T15:27:57.950Z,95941.09
2023-03-02T15:31:10.083Z,95949.59
2023-03-02T15:34:12.610Z,95951.75
2023-03-02T15:37:14.852Z,95954.28
2023-03-02T15:40:19.031Z,95958.78
2023-03-02T15:43:20.996Z,95960.47
2023-03-02T15:46:23.902Z,95953.78
2023-03-02T15:49:28.564Z,95957.66
2023-03-02T15:52:31.440Z,95966.44
2023-03-02T15:55:33.169Z,95970.41
2023-03-02T15:58:35.841Z,95979.69
2023-03-02T16:01:37.496Z,95978.63
2023-03-02T16:04:39.256Z,95981.38
2023-03-02T16:07:41.128Z,95973.09
2023-03-02T16:10:42.996Z,95982.00
2023-03-02T16:13:44.612Z,95980.09
2023-03-02T16:16:46.410Z,95984.94
2023-03-02T16:19:48.547Z,95994.75
2023-03-02T16:22:51.792Z,95996.44
2023-03-02T16:25:56.231Z,96008.19
2023-03-02T16:29:00.348Z,95998.38
2023-03-02T16:32:02.224Z,96012.81
2023-03-02T16:35:04.284Z,96011.75
2023-03-02T16:38:06.444Z,96024.56
2023-03-02T16:41:16.793Z,96022.66
2023-03-02T16:44:19.316Z,96025.50
2023-03-02T16:47:22.489Z,96028.63
2023-03-02T16:50:25.056Z,96027.94
2023-03-02T16:53:28.136Z,96036.78
2023-03-02T16:56:30.251Z,96037.78
2023-03-02T16:59:33.092Z,96044.75
2023-03-02T17:02:35.160Z,96043.94
2023-03-02T17:05:37.805Z,96047.56
2023-03-02T17:08:39.605Z,96057.38
2023-03-02T17:11:41.229Z,96064.47
2023-03-02T17:14:42.836Z,96065.28
2023-03-02T17:17:44.434Z,96063.47
2023-03-02T17:20:46.457Z,96071.38
2023-03-02T17:23:50.893Z,96072.31
2023-03-02T17:26:56.564Z,96074.25
2023-03-02T17:29:59.337Z,96082.28
2023-03-02T17:33:01.644Z,96079.75
2023-03-02T17:36:07.409Z,96086.44
2023-03-02T17:39:09.344Z,96093.75
2023-03-02T17:42:11.077Z,96091.19
2023-03-02T17:45:27.273Z,96100.63
2023-03-02T17:48:28.850Z,96097.94
2023-03-02T17:51:30.608Z,96112.78
2023-03-02T17:54:32.759Z,96116.44
2023-03-02T17:57:34.519Z,96116.13
2023-03-02T18:00:36.317Z,96119.69
2023-03-02T18:03:38.913Z,96118.75
2023-03-02T18:06:40.846Z,96128.16
2023-03-02T18:09:42.847Z,96132.03
2023-03-02T18:12:44.397Z,96131.09
2023-03-02T18:15:46.055Z,96135.31
2023-03-02T18:18:48.484Z,96139.44
2023-03-02T18:21:50.094Z,96143.53
2023-03-02T18:24:53.033Z,96143.44
2023-03-02T18:27:55.214Z,96145.59
2023-03-02T18:30:58.537Z,96150.53
2023-03-02T18:34:02.514Z,96153.78
2023-03-02T18:37:05.403Z,96159.56
2023-03-02T18:40:07.952Z,96164.38
2023-03-02T18:43:09.636Z,96159.81
2023-03-02T18:46:20.878Z,96168.00
2023-03-02T18:49:24.084Z,96168.44
2023-03-02T18:52:26.500Z,96175.06
2023-03-02T18:55:28.191Z,96164.13
2023-03-02T18:58:34.053Z,96169.16
2023-03-02T19:01:35.743Z,96179.81
2023-03-02T19:04:37.672Z,96178.75
2023-03-02T19:07:39.506Z,96190.97
2023-03-02T19:10:42.357Z,96189.75
2023-03-02T19:13:44.064Z,96200.56
2023-03-02T19:16:46.328Z,96192.16
2023-03-02T19:19:47.986Z,96196.94
2023-03-02T19:22:49.791Z,96198.03
2023-03-02T19:25:53.900Z,96200.28
2023-03-02T19:28:55.630Z,96198.94
2023-03-02T19:31:58.321Z,96200.03
2023-03-02T19:35:04.169Z,96200.34
2023-03-02T19:38:07.280Z,96197.09
2023-03-02T19:41:12.631Z,96207.03
2023-03-02T19:44:14.329Z,96204.00
2023-03-02T19:47:16.066Z,96200.53
2023-03-02T19:50:18.906Z,96200.78
2023-03-02T19:53:22.792Z,96204.56
2023-03-02T19:56:33.100Z,96203.22
2023-03-02T19:59:36.592Z,96213.88
2023-03-02T20:02:40.749Z,96204.75
2023-03-02T20:05:42.435Z,96212.91
2023-03-02T20:08:44.480Z,96208.28
2023-03-02T20:11:47.574Z,96207.44
2023-03-02T20:14:53.714Z,96213.91
2023-03-02T20:17:58.471Z,96216.84
2023-03-02T20:21:02.156Z,96218.03
2023-03-02T20:24:05.036Z,96215.84
2023-03-02T20:27:07.330Z,96212.66
2023-03-02T20:30:13.764Z,96218.38
2023-03-02T20:33:16.273Z,96225.88
2023-03-02T20:36:30.527Z,96213.25
2023-03-02T20:39:35.637Z,96222.53
2023-03-02T20:42:37.552Z,96228.25
2023-03-02T20:45:39.893Z,96220.78
2023-03-02T20:48:41.540Z,96226.34
2023-03-02T20:51:49.422Z,96226.06
2023-03-02T20:54:53.807Z,96227.22
2023-03-02T20:58:10.671Z,96232.91
2023-03-02T21:01:17.424Z,96227.41
2023-03-02T21:04:20.791Z,96220.69
2023-03-02T21:07:24.217Z,96227.00
2023-03-02T21:10:32.823Z,96223.94
2023-03-02T21:13:34.471Z,96226.16
2023-03-02T21:16:38.905Z,96230.88
2023-03-02T21:19:40.521Z,96219.50
2023-03-02T21:22:42.437Z,96229.50
2023-03-02T21:25:44.835Z,96222.75
2023-03-02T21:28:46.556Z,96227.41
2023-03-02T21:31:48.505Z,96217.16
2023-03-02T21:34:52.609Z,96220.03
2023-03-02T21:37:58.388Z,96233.38
2023-03-02T21:41:01.161Z,96225.88
2023-03-02T21:44:05.513Z,96222.81
2023-03-02T21:47:07.245Z,96229.03
2023-03-02T21:50:13.114Z,96220.47
2023-03-02T21:53:14.761Z,96215.63
2023-03-02T21:56:20.748Z,96217.53
2023-03-02T21:59:26.084Z,96220.44
2023-03-02T22:02:28.234Z,96225.06
2023-03-02T22:05:32.139Z,96222.72
2023-03-02T22:08:35.431Z,96229.06
2023-03-02T22:11:38.411Z,96225.75
2023-03-02T22:14:40.064Z,96218.09
2023-03-02T22:17:42.380Z,96220.81
2023-03-02T22:20:47.188Z,96223.63
2023-03-02T22:23:48.986Z,96221.31
2023-03-02T22:26:57.189Z,96224.97
2023-03-02T22:30:02.782Z,96218.94
2023-03-02T22:33:15.048Z,96233.16
2023-03-02T22:36:23.937Z,96219.56
2023-03-02T22:39:30.773Z,96224.72
2023-03-02T22:42:34.051Z,96222.28
2023-03-02T22:45:38.283Z,96225.09
2023-03-02T22:48:41.790Z,96232.25
2023-03-02T22:51:44.568Z,96226.25
2023-03-02T22:54:46.466Z,96225.50
2023-03-02T22:57:48.094Z,96232.53
2023-03-02T23:00:49.793Z,96230.13
2023-03-02T23:03:54.391Z,96229.34
2023-03-02T23:07:01.135Z,96227.75
2023-03-02T23:10:03.548Z,96235.84
2023-03-02T23:13:05.173Z,96227.31
2023-03-02T23:16:18.193Z,96225.59
2023-03-02T23:19:20.444Z,96239.72
2023-03-02T23:22:23.159Z,96238.97
2023-03-02T23:25:26.068Z,96244.38
2023-03-02T23:28:27.654Z,96236.72
2023-03-02T23:31:31.317Z,96241.97
2023-03-02T23:34:32.978Z,96243.94
2023-03-02T23:37:34.634Z,96242.25
2023-03-02T23:40:36.230Z,96233.06
2023-03-02T23:43:38.143Z,96238.13
2023-03-02T23:46:39.914Z,96237.38
2023-03-02T23:49:41.484Z,96231.28
2023-03-02T23:52:43.271Z,96238.38
2023-03-02T23:55:48.974Z,96242.84
2023-03-02T23:58:50.676Z,96238.50
